createdAt,value
2019-04-27T00:02:55.865Z,78.88
2019-04-27T00:07:59.468Z,79.41
2019-04-27T00:13:05.801Z,79.48
2019-04-27T00:18:29.701Z,79.15
2019-04-27T00:23:33.973Z,79.50
2019-04-27T00:28:37.537Z,79.47
2019-04-27T00:33:40.989Z,79.62
2019-04-27T00:38:46.025Z,79.48
2019-04-27T00:43:49.409Z,79.31
2019-04-27T00:48:53.435Z,79.51
2019-04-27T00:53:56.950Z,79.70
2019-04-27T00:59:03.515Z,79.70
2019-04-27T01:04:08.608Z,79.93
2019-04-27T01:09:14.128Z,79.62
2019-04-27T01:14:17.490Z,79.75
2019-04-27T01:19:20.952Z,79.90
2019-04-27T01:24:24.366Z,79.89
2019-04-27T01:29:29.786Z,79.88
2019-04-27T01:34:33.666Z,79.61
2019-04-27T01:39:38.619Z,79.27
2019-04-27T01:44:42.563Z,78.74
2019-04-27T01:49:45.912Z,78.79
2019-04-27T01:54:49.645Z,78.77
2019-04-27T01:59:52.941Z,78.50
2019-04-27T02:04:59.391Z,78.83
2019-04-27T02:10:03.726Z,78.83
2019-04-27T02:15:08.856Z,78.66
2019-04-27T02:20:13.457Z,78.86
2019-04-27T02:25:17.045Z,78.53
2019-04-27T02:30:24.936Z,77.93
2019-04-27T02:35:30.014Z,78.61
2019-04-27T02:40:49.553Z,78.85
2019-04-27T02:45:53.187Z,78.79
2019-04-27T02:50:59.880Z,78.77
2019-04-27T02:56:03.353Z,78.55
2019-04-27T03:01:06.935Z,78.84
2019-04-27T03:06:10.367Z,78.92
2019-04-27T03:11:14.754Z,78.69
2019-04-27T03:16:29.644Z,78.89
2019-04-27T03:21:50.919Z,79.18
2019-04-27T03:27:00.533Z,79.17
2019-04-27T03:32:03.689Z,78.50
2019-04-27T03:37:10.126Z,79.58
2019-04-27T03:42:12.683Z,79.60
2019-04-27T03:47:16.151Z,79.44
2019-04-27T03:52:26.613Z,79.19
2019-04-27T03:57:34.175Z,79.39
2019-04-27T04:02:40.089Z,78.73
2019-04-27T04:07:42.765Z,78.55
2019-04-27T04:12:50.590Z,79.15
2019-04-27T04:17:54.041Z,79.13
2019-04-27T04:23:00.156Z,79.12
2019-04-27T04:28:02.473Z,79.16
2019-04-27T04:33:05.825Z,79.41
2019-04-27T04:38:10.470Z,79.48
2019-04-27T04:43:32.074Z,79.38
2019-04-27T04:48:35.452Z,79.25
2019-04-27T04:53:40.588Z,79.28
2019-04-27T04:58:44.081Z,79.13
2019-04-27T05:03:48.834Z,79.15
2019-04-27T05:08:52.227Z,78.91
2019-04-27T05:13:55.621Z,78.02
2019-04-27T05:18:59.429Z,78.56
2019-04-27T05:24:04.476Z,78.48
2019-04-27T05:29:09.163Z,77.46
2019-04-27T05:34:12.558Z,78.58
2019-04-27T05:39:18.179Z,76.99
2019-04-27T05:44:31.204Z,77.31
2019-04-27T05:49:40.109Z,76.91
2019-04-27T05:54:41.264Z,77.18
2019-04-27T05:59:44.809Z,77.13
2019-04-27T06:04:49.677Z,76.41
2019-04-27T06:09:53.092Z,75.53
2019-04-27T06:14:56.460Z,76.38
2019-04-27T06:19:59.884Z,76.01
2019-04-27T06:25:03.705Z,76.38
2019-04-27T06:30:09.318Z,76.55
2019-04-27T06:35:12.856Z,76.25
2019-04-27T06:40:16.368Z,75.76
2019-04-27T06:45:19.869Z,74.62
2019-04-27T06:50:23.412Z,75.04
2019-04-27T06:55:26.867Z,75.20
2019-04-27T07:00:30.221Z,74.44
2019-04-27T07:05:33.715Z,73.70
2019-04-27T07:10:39.035Z,73.96
2019-04-27T07:15:42.196Z,73.21
2019-04-27T07:20:45.544Z,73.44
2019-04-27T07:25:48.902Z,73.83
2019-04-27T07:30:52.329Z,73.02
2019-04-27T07:35:55.671Z,72.75
2019-04-27T07:40:59.050Z,73.47
2019-04-27T07:46:02.395Z,72.92
2019-04-27T07:51:05.768Z,72.60
2019-04-27T07:56:10.747Z,73.26
2019-04-27T08:01:14.277Z,72.83
2019-04-27T08:06:18.981Z,71.91
2019-04-27T08:11:22.525Z,72.58
2019-04-27T08:16:25.847Z,72.18
2019-04-27T08:21:29.228Z,73.00
2019-04-27T08:26:34.241Z,72.55
2019-04-27T08:31:41.988Z,71.32
2019-04-27T08:36:45.361Z,71.79
2019-04-27T08:41:49.460Z,71.79
2019-04-27T08:46:53.079Z,71.26
2019-04-27T08:51:59.911Z,70.86
2019-04-27T08:57:01.843Z,71.47
2019-04-27T09:02:05.263Z,70.95
2019-04-27T09:07:29.468Z,70.69
2019-04-27T09:12:53.887Z,70.08
2019-04-27T09:17:58.884Z,68.12
2019-04-27T09:23:02.365Z,68.47
2019-04-27T09:28:05.782Z,68.50
2019-04-27T09:33:09.307Z,67.93
2019-04-27T09:38:12.687Z,66.98
2019-04-27T09:43:16.073Z,67.13
2019-04-27T09:48:19.479Z,67.53
2019-04-27T09:53:22.900Z,67.63
2019-04-27T09:58:26.376Z,66.84
2019-04-27T10:03:29.814Z,65.96
2019-04-27T10:08:33.201Z,65.32
2019-04-27T10:13:36.587Z,64.35
2019-04-27T10:18:39.900Z,64.43
2019-04-27T10:23:43.334Z,63.93
2019-04-27T10:28:46.667Z,63.23
2019-04-27T10:33:50.021Z,64.14
2019-04-27T10:38:53.393Z,64.01
2019-04-27T10:43:56.777Z,64.04
2019-04-27T10:49:00.241Z,64.48
2019-04-27T10:54:05.164Z,64.29
2019-04-27T10:59:09.840Z,62.91
2019-04-27T11:04:15.933Z,63.11
2019-04-27T11:09:19.549Z,61.13
2019-04-27T11:14:22.926Z,59.99
2019-04-27T11:19:26.801Z,59.77
2019-04-27T11:24:30.549Z,59.63
2019-04-27T11:29:33.964Z,60.25
2019-04-27T11:34:55.842Z,58.28
2019-04-27T11:39:59.307Z,59.08
2019-04-27T11:45:03.011Z,60.14
2019-04-27T11:50:08.421Z,58.34
2019-04-27T11:55:12.825Z,56.88
2019-04-27T12:00:19.952Z,57.56
2019-04-27T12:05:23.409Z,54.56
2019-04-27T12:10:26.877Z,51.73
2019-04-27T12:15:30.285Z,49.84
2019-04-27T12:20:35.767Z,51.16
2019-04-27T12:25:39.001Z,47.89
2019-04-27T12:30:59.870Z,46.32
2019-04-27T12:36:03.662Z,46.29
2019-04-27T12:41:08.126Z,46.52
2019-04-27T12:46:11.608Z,46.96
2019-04-27T12:51:15.018Z,53.69
2019-04-27T12:56:22.795Z,68.01
2019-04-27T13:01:28.858Z,72.24
2019-04-27T13:06:32.269Z,73.30
2019-04-27T13:11:36.635Z,72.86
2019-04-27T13:16:40.275Z,72.60
2019-04-27T13:21:43.905Z,71.40
2019-04-27T13:26:47.306Z,71.41
2019-04-27T13:31:50.733Z,69.25
2019-04-27T13:36:56.161Z,68.85
2019-04-27T13:42:00.514Z,70.33
2019-04-27T13:47:17.640Z,67.08
2019-04-27T13:52:22.640Z,62.18
2019-04-27T13:57:26.529Z,63.80
2019-04-27T14:02:32.567Z,58.22
2019-04-27T14:07:35.358Z,54.85
2019-04-27T14:12:38.805Z,56.63
2019-04-27T14:17:42.289Z,54.08
2019-04-27T14:22:45.694Z,55.31
2019-04-27T14:27:49.156Z,52.28
2019-04-27T14:32:52.672Z,51.65
2019-04-27T14:37:56.054Z,53.74
2019-04-27T14:42:59.582Z,53.31
2019-04-27T14:48:03.086Z,53.28
2019-04-27T14:53:06.507Z,54.62
2019-04-27T14:58:09.866Z,56.30
2019-04-27T15:03:13.227Z,56.90
2019-04-27T15:08:16.600Z,56.97
2019-04-27T15:13:20.080Z,62.31
2019-04-27T15:18:25.103Z,62.56
2019-04-27T15:23:30.842Z,65.70
2019-04-27T15:28:35.622Z,65.02
2019-04-27T15:33:58.991Z,69.23
2019-04-27T15:39:10.717Z,68.53
2019-04-27T15:44:14.888Z,67.74
2019-04-27T15:49:18.328Z,64.95
2019-04-27T15:54:22.424Z,67.48
2019-04-27T15:59:37.022Z,66.46
2019-04-27T16:04:38.197Z,66.46
2019-04-27T16:09:41.149Z,67.54
2019-04-27T16:14:44.560Z,71.19
2019-04-27T16:19:50.251Z,71.76
2019-04-27T16:24:53.672Z,67.99
2019-04-27T16:30:00.369Z,68.80
2019-04-27T16:35:04.028Z,68.67
2019-04-27T16:40:08.441Z,66.56
2019-04-27T16:45:13.593Z,69.60
2019-04-27T16:50:19.706Z,66.86
2019-04-27T16:55:22.389Z,68.01
2019-04-27T17:00:26.510Z,70.10
2019-04-27T17:05:34.311Z,73.46
2019-04-27T17:10:35.531Z,71.34
2019-04-27T17:15:53.595Z,71.06
2019-04-27T17:21:02.661Z,70.65
2019-04-27T17:26:13.969Z,72.37
2019-04-27T17:31:12.849Z,70.54
2019-04-27T17:36:16.384Z,70.43
2019-04-27T17:41:19.240Z,71.11
2019-04-27T17:46:22.679Z,70.04
2019-04-27T17:51:26.126Z,76.07
2019-04-27T17:56:35.990Z,76.23
2019-04-27T18:01:34.766Z,75.98
2019-04-27T18:06:39.004Z,76.07
2019-04-27T18:11:42.587Z,75.72
2019-04-27T18:16:45.952Z,74.36
2019-04-27T18:21:57.467Z,77.70
2019-04-27T18:27:04.499Z,76.19
2019-04-27T18:32:08.897Z,70.43
2019-04-27T18:37:14.414Z,73.03
2019-04-27T18:42:18.198Z,74.44
2019-04-27T18:47:21.988Z,75.77
2019-04-27T18:52:47.269Z,74.65
2019-04-27T18:58:14.267Z,75.71
2019-04-27T19:03:18.365Z,76.81
2019-04-27T19:08:23.805Z,77.52
2019-04-27T19:13:31.873Z,77.51
2019-04-27T19:18:37.788Z,76.31
2019-04-27T19:23:41.779Z,75.71
2019-04-27T19:29:05.160Z,76.13
2019-04-27T19:34:08.838Z,75.75
2019-04-27T19:39:14.044Z,75.10
2019-04-27T19:44:18.826Z,76.17
2019-04-27T19:49:22.467Z,76.83
2019-04-27T19:54:29.940Z,75.36
2019-04-27T19:59:35.236Z,76.48
2019-04-27T20:04:39.493Z,76.75
2019-04-27T20:09:53.368Z,77.71
2019-04-27T20:14:56.849Z,79.45
2019-04-27T20:20:00.861Z,78.27
2019-04-27T20:25:06.108Z,78.80
2019-04-27T20:30:11.640Z,79.52
2019-04-27T20:35:15.407Z,79.50
2019-04-27T20:40:18.973Z,78.08
2019-04-27T20:45:22.426Z,77.66
2019-04-27T20:50:25.842Z,77.57
2019-04-27T20:55:29.752Z,77.49
2019-04-27T21:00:33.386Z,77.76
2019-04-27T21:05:41.235Z,77.77
2019-04-27T21:10:44.619Z,77.59
2019-04-27T21:15:48.084Z,78.70
2019-04-27T21:20:51.474Z,79.09
2019-04-27T21:25:54.904Z,79.37
2019-04-27T21:30:58.390Z,79.53
2019-04-27T21:36:01.754Z,79.29
2019-04-27T21:41:05.141Z,79.15
2019-04-27T21:46:08.493Z,79.50
2019-04-27T21:51:11.994Z,79.35
2019-04-27T21:56:15.397Z,79.17
2019-04-27T22:01:26.918Z,77.70
2019-04-27T22:06:30.295Z,79.14
2019-04-27T22:11:33.676Z,78.26
2019-04-27T22:16:37.020Z,78.61
2019-04-27T22:21:41.944Z,78.88
2019-04-27T22:26:45.484Z,79.45
2019-04-27T22:31:48.921Z,80.54
2019-04-27T22:36:52.256Z,81.02
2019-04-27T22:42:01.714Z,81.23
2019-04-27T22:47:05.265Z,81.49
2019-04-27T22:52:08.637Z,81.76
2019-04-27T22:57:13.629Z,81.33
2019-04-27T23:02:29.337Z,80.78
2019-04-27T23:07:32.821Z,80.73
2019-04-27T23:12:36.182Z,80.27
2019-04-27T23:17:51.698Z,80.15
2019-04-27T23:22:55.138Z,79.86
2019-04-27T23:27:58.482Z,79.60
2019-04-27T23:33:01.894Z,79.72
2019-04-27T23:38:15.587Z,80.27
2019-04-27T23:43:11.499Z,80.04
2019-04-27T23:48:14.905Z,79.45
2019-04-27T23:53:21.730Z,79.40
2019-04-27T23:58:25.005Z,78.79
